createdAt,value
2022-10-08T00:01:18.280Z,1.87
2022-10-08T00:03:28.164Z,2.10
2022-10-08T00:05:36.739Z,1.90
2022-10-08T00:07:46.124Z,1.80
2022-10-08T00:09:57.003Z,1.90
2022-10-08T00:12:06.043Z,2.00
2022-10-08T00:14:14.655Z,2.00
2022-10-08T00:16:25.163Z,1.73
2022-10-08T00:18:34.169Z,2.00
2022-10-08T00:20:46.203Z,1.90
2022-10-08T00:22:55.040Z,1.80
2022-10-08T00:25:05.249Z,2.30
2022-10-08T00:27:14.189Z,1.90
2022-10-08T00:29:24.164Z,2.00
2022-10-08T00:31:33.869Z,2.00
2022-10-08T00:33:43.356Z,1.70
2022-10-08T00:35:54.247Z,2.10
2022-10-08T00:38:03.223Z,1.70
2022-10-08T00:40:15.202Z,1.77
2022-10-08T00:42:25.078Z,2.03
2022-10-08T00:44:51.189Z,2.10
2022-10-08T00:46:59.952Z,1.80
2022-10-08T00:49:16.307Z,2.40
2022-10-08T00:51:25.716Z,1.97
2022-10-08T00:53:34.434Z,2.13
2022-10-08T00:55:45.076Z,2.03
2022-10-08T00:57:54.259Z,1.60
2022-10-08T01:00:04.800Z,2.27
2022-10-08T01:02:13.951Z,2.37
2022-10-08T01:04:23.184Z,2.07
2022-10-08T01:06:33.873Z,1.77
2022-10-08T01:08:45.224Z,1.93
2022-10-08T01:10:59.641Z,1.90
2022-10-08T01:13:15.548Z,1.83
2022-10-08T01:15:27.829Z,1.80
2022-10-08T01:17:40.771Z,2.40
2022-10-08T01:20:06.622Z,1.77
2022-10-08T01:22:22.418Z,1.83
2022-10-08T01:24:49.921Z,2.10
2022-10-08T01:27:04.406Z,2.13
2022-10-08T01:29:17.228Z,1.90
2022-10-08T01:31:26.864Z,1.90
2022-10-08T01:33:38.762Z,2.07
2022-10-08T01:35:51.116Z,2.03
2022-10-08T01:38:01.902Z,2.40
2022-10-08T01:40:12.449Z,1.87
2022-10-08T01:42:24.387Z,2.00
2022-10-08T01:44:38.843Z,1.80
2022-10-08T01:46:48.986Z,2.17
2022-10-08T01:48:59.963Z,1.80
2022-10-08T01:51:12.979Z,2.10
2022-10-08T01:53:23.976Z,2.07
2022-10-08T01:55:37.131Z,2.50
2022-10-08T01:57:57.985Z,2.20
2022-10-08T02:00:10.236Z,1.80
2022-10-08T02:02:21.334Z,2.20
2022-10-08T02:04:37.242Z,1.90
2022-10-08T02:06:47.700Z,2.20
2022-10-08T02:08:57.289Z,2.20
2022-10-08T02:11:05.842Z,2.00
2022-10-08T02:13:15.111Z,2.10
2022-10-08T02:15:29.788Z,2.23
2022-10-08T02:17:45.282Z,2.10
2022-10-08T02:19:56.815Z,1.77
2022-10-08T02:22:07.516Z,1.60
2022-10-08T02:24:19.305Z,2.10
2022-10-08T02:26:31.477Z,1.73
2022-10-08T02:28:44.593Z,1.93
2022-10-08T02:30:56.476Z,2.10
2022-10-08T02:33:07.446Z,2.00
2022-10-08T02:35:18.432Z,1.93
2022-10-08T02:37:29.929Z,1.80
2022-10-08T02:39:40.265Z,2.10
2022-10-08T02:41:51.088Z,2.03
2022-10-08T02:44:01.338Z,1.70
2022-10-08T02:46:15.207Z,1.93
2022-10-08T02:48:27.568Z,1.90
2022-10-08T02:50:38.228Z,2.20
2022-10-08T02:52:48.263Z,2.17
2022-10-08T02:54:57.830Z,1.97
2022-10-08T02:57:10.067Z,1.80
2022-10-08T02:59:19.483Z,1.80
2022-10-08T03:01:37.137Z,2.03
2022-10-08T03:03:49.074Z,1.93
2022-10-08T03:05:58.404Z,1.77
2022-10-08T03:08:07.586Z,1.73
2022-10-08T03:10:18.141Z,2.20
2022-10-08T03:12:27.170Z,1.90
2022-10-08T03:14:37.254Z,2.13
2022-10-08T03:16:48.661Z,2.10
2022-10-08T03:18:59.272Z,1.93
2022-10-08T03:21:10.113Z,1.87
2022-10-08T03:23:20.143Z,2.20
2022-10-08T03:25:28.794Z,1.97
2022-10-08T03:27:37.507Z,1.90
2022-10-08T03:29:46.634Z,2.07
2022-10-08T03:31:56.832Z,2.17
2022-10-08T03:34:05.644Z,2.00
2022-10-08T03:36:14.186Z,2.20
2022-10-08T03:38:23.091Z,2.33
2022-10-08T03:40:31.661Z,1.60
2022-10-08T03:42:40.275Z,1.90
2022-10-08T03:44:50.293Z,1.90
2022-10-08T03:47:06.056Z,1.70
2022-10-08T03:49:14.624Z,1.97
2022-10-08T03:51:24.052Z,1.80
2022-10-08T03:53:35.067Z,1.60
2022-10-08T03:55:44.047Z,1.50
2022-10-08T03:57:52.976Z,1.90
2022-10-08T04:00:01.747Z,2.13
2022-10-08T04:02:12.222Z,1.63
2022-10-08T04:04:25.409Z,1.50
2022-10-08T04:06:35.049Z,1.97
2022-10-08T04:08:44.164Z,1.97
2022-10-08T04:10:53.171Z,1.70
2022-10-08T04:13:01.879Z,1.90
2022-10-08T04:15:11.346Z,1.67
2022-10-08T04:17:21.195Z,1.77
2022-10-08T04:19:30.414Z,1.70
2022-10-08T04:21:39.694Z,1.60
2022-10-08T04:23:50.726Z,1.70
2022-10-08T04:25:59.456Z,1.53
2022-10-08T04:28:08.457Z,1.60
2022-10-08T04:30:17.625Z,1.90
2022-10-08T04:32:27.871Z,1.63
2022-10-08T04:34:36.864Z,1.60
2022-10-08T04:36:45.328Z,1.80
2022-10-08T04:38:54.754Z,1.93
2022-10-08T04:41:04.364Z,1.60
2022-10-08T04:43:13.327Z,1.47
2022-10-08T04:45:21.911Z,1.50
2022-10-08T04:47:32.797Z,1.70
2022-10-08T04:49:41.763Z,1.50
2022-10-08T04:51:50.789Z,1.43
2022-10-08T04:53:59.926Z,1.50
2022-10-08T04:56:14.767Z,1.20
2022-10-08T04:58:24.348Z,1.20
2022-10-08T05:00:33.334Z,1.40
2022-10-08T05:02:43.687Z,1.30
2022-10-08T05:04:52.866Z,1.30
2022-10-08T05:07:01.853Z,1.40
2022-10-08T05:09:11.121Z,1.60
2022-10-08T05:11:20.885Z,1.47
2022-10-08T05:13:29.878Z,1.30
2022-10-08T05:15:39.231Z,1.40
2022-10-08T05:17:49.938Z,1.10
2022-10-08T05:19:59.005Z,1.10
2022-10-08T05:22:07.861Z,1.10
2022-10-08T05:24:16.927Z,0.90
2022-10-08T05:26:46.573Z,1.23
2022-10-08T05:28:56.563Z,1.20
2022-10-08T05:31:05.338Z,1.03
2022-10-08T05:33:16.563Z,0.90
2022-10-08T05:35:25.333Z,1.43
2022-10-08T05:37:34.163Z,1.00
2022-10-08T05:39:44.902Z,1.13
2022-10-08T05:41:54.381Z,1.20
2022-10-08T05:44:03.531Z,1.00
2022-10-08T05:46:13.232Z,1.00
2022-10-08T05:48:23.717Z,1.10
2022-10-08T05:50:32.189Z,1.40
2022-10-08T05:52:41.176Z,1.23
2022-10-08T05:54:49.998Z,0.87
2022-10-08T05:56:58.886Z,1.20
2022-10-08T05:59:07.815Z,0.90
2022-10-08T06:01:21.595Z,1.10
2022-10-08T06:03:32.169Z,1.20
2022-10-08T06:05:41.294Z,1.50
2022-10-08T06:07:50.074Z,1.30
2022-10-08T06:09:58.800Z,1.10
2022-10-08T06:12:10.036Z,1.40
2022-10-08T06:14:20.308Z,1.03
2022-10-08T06:16:29.299Z,1.40
2022-10-08T06:18:40.232Z,1.43
2022-10-08T06:20:48.837Z,1.03
2022-10-08T06:22:57.720Z,1.17
2022-10-08T06:25:07.352Z,1.17
2022-10-08T06:27:16.295Z,1.00
2022-10-08T06:29:25.445Z,1.17
2022-10-08T06:31:34.645Z,1.20
2022-10-08T06:33:45.013Z,1.10
2022-10-08T06:35:55.938Z,1.30
2022-10-08T06:38:05.277Z,1.20
2022-10-08T06:40:17.448Z,1.00
2022-10-08T06:42:26.687Z,1.10
2022-10-08T06:44:35.922Z,1.13
2022-10-08T06:46:45.857Z,0.87
2022-10-08T06:48:56.719Z,1.10
2022-10-08T06:51:07.037Z,1.20
2022-10-08T06:53:15.659Z,1.10
2022-10-08T06:55:24.556Z,0.97
2022-10-08T06:57:33.377Z,0.93
2022-10-08T06:59:41.922Z,0.90
2022-10-08T07:01:50.775Z,1.27
2022-10-08T07:04:01.839Z,0.90
2022-10-08T07:06:11.707Z,1.20
2022-10-08T07:08:20.682Z,1.43
2022-10-08T07:10:33.244Z,0.90
2022-10-08T07:12:42.623Z,1.10
2022-10-08T07:14:51.606Z,1.00
2022-10-08T07:17:00.696Z,1.07
2022-10-08T07:19:11.221Z,1.17
2022-10-08T07:21:20.971Z,1.07
2022-10-08T07:23:30.129Z,0.97
2022-10-08T07:25:39.496Z,0.93
2022-10-08T07:27:48.400Z,1.17
2022-10-08T07:29:57.513Z,0.90
2022-10-08T07:32:07.009Z,1.20
2022-10-08T07:34:17.898Z,1.13
2022-10-08T07:36:27.500Z,1.00
2022-10-08T07:38:36.571Z,1.00
2022-10-08T07:40:45.552Z,1.43
2022-10-08T07:42:54.851Z,1.00
2022-10-08T07:45:03.623Z,1.37
2022-10-08T07:47:12.467Z,1.30
2022-10-08T07:49:22.974Z,0.80
2022-10-08T07:51:32.603Z,1.30
2022-10-08T07:53:41.581Z,0.93
2022-10-08T07:55:50.597Z,1.20
2022-10-08T07:57:59.226Z,1.27
2022-10-08T08:00:09.225Z,1.10
2022-10-08T08:02:18.318Z,1.37
2022-10-08T08:04:29.180Z,0.90
2022-10-08T08:06:40.595Z,1.40
2022-10-08T08:08:49.678Z,1.03
2022-10-08T08:10:59.004Z,1.00
2022-10-08T08:13:07.716Z,1.20
2022-10-08T08:15:17.013Z,1.10
2022-10-08T08:17:26.051Z,1.37
2022-10-08T08:19:42.442Z,1.53
2022-10-08T08:21:51.363Z,1.03
2022-10-08T08:24:00.743Z,1.00
2022-10-08T08:26:10.296Z,1.20
2022-10-08T08:28:19.197Z,1.17
2022-10-08T08:30:28.113Z,1.07
2022-10-08T08:32:36.744Z,1.00
2022-10-08T08:34:47.176Z,1.30
2022-10-08T08:36:56.040Z,0.97
2022-10-08T08:39:05.673Z,1.20
2022-10-08T08:41:22.062Z,1.50
2022-10-08T08:43:30.853Z,1.50
2022-10-08T08:45:47.973Z,2.10
2022-10-08T08:48:00.492Z,1.30
2022-10-08T08:50:21.109Z,1.47
2022-10-08T08:52:33.436Z,1.60
2022-10-08T08:54:42.514Z,1.43
2022-10-08T08:56:51.938Z,1.20
2022-10-08T08:59:02.988Z,1.47
2022-10-08T09:01:18.804Z,1.47
2022-10-08T09:03:28.784Z,1.50
2022-10-08T09:05:42.042Z,1.20
2022-10-08T09:07:52.985Z,1.53
2022-10-08T09:10:01.969Z,1.43
2022-10-08T09:12:20.657Z,1.20
2022-10-08T09:14:33.657Z,1.30
2022-10-08T09:16:42.700Z,1.30
2022-10-08T09:18:52.416Z,1.40
2022-10-08T09:21:03.647Z,1.40
2022-10-08T09:23:16.796Z,1.50
2022-10-08T09:25:26.807Z,1.50
2022-10-08T09:27:45.495Z,1.57
2022-10-08T09:29:54.645Z,1.03
2022-10-08T09:32:03.330Z,1.30
2022-10-08T09:34:19.289Z,1.40
2022-10-08T09:36:33.393Z,2.07
2022-10-08T09:38:42.094Z,1.33
2022-10-08T09:41:04.490Z,1.43
2022-10-08T09:43:16.297Z,1.37
2022-10-08T09:45:33.824Z,1.77
2022-10-08T09:47:42.426Z,1.50
2022-10-08T09:50:04.611Z,1.70
2022-10-08T09:52:17.653Z,1.20
2022-10-08T09:54:27.773Z,1.30
2022-10-08T09:56:37.449Z,1.40
2022-10-08T09:58:51.692Z,1.80
2022-10-08T10:01:03.907Z,1.60
2022-10-08T10:03:18.763Z,1.47
2022-10-08T10:05:28.616Z,1.33
2022-10-08T10:07:43.484Z,1.50
2022-10-08T10:09:54.940Z,1.23
2022-10-08T10:12:06.100Z,1.43
2022-10-08T10:14:16.935Z,1.03
2022-10-08T10:16:28.722Z,1.40
2022-10-08T10:18:41.968Z,1.20
2022-10-08T10:20:53.258Z,1.60
2022-10-08T10:23:06.586Z,1.20
2022-10-08T10:25:18.699Z,1.07
2022-10-08T10:27:30.537Z,1.40
2022-10-08T10:29:46.757Z,1.23
2022-10-08T10:31:57.952Z,1.30
2022-10-08T10:34:09.632Z,1.30
2022-10-08T10:36:20.017Z,1.30
2022-10-08T10:38:32.425Z,1.20
2022-10-08T10:40:44.794Z,1.30
2022-10-08T10:42:56.912Z,1.30
2022-10-08T10:45:16.475Z,1.40
2022-10-08T10:47:31.001Z,0.93
2022-10-08T10:49:43.723Z,1.40
2022-10-08T10:51:59.859Z,1.10
2022-10-08T10:54:16.287Z,1.10
2022-10-08T10:56:27.733Z,1.30
2022-10-08T10:58:42.766Z,1.50
2022-10-08T11:00:56.046Z,1.20
2022-10-08T11:03:10.123Z,1.27
2022-10-08T11:05:22.714Z,1.10
2022-10-08T11:07:39.484Z,1.93
2022-10-08T11:09:52.917Z,1.23
2022-10-08T11:12:04.017Z,1.40
2022-10-08T11:14:21.732Z,1.70
2022-10-08T11:16:40.440Z,0.90
2022-10-08T11:18:51.482Z,1.37
2022-10-08T11:21:03.831Z,1.37
2022-10-08T11:23:23.128Z,1.50
2022-10-08T11:26:02.107Z,1.47
2022-10-08T11:28:15.226Z,1.27
2022-10-08T11:30:25.311Z,1.37
2022-10-08T11:32:35.271Z,1.27
2022-10-08T11:34:48.498Z,1.50
2022-10-08T11:37:05.479Z,1.17
2022-10-08T11:39:17.902Z,1.10
2022-10-08T11:41:31.466Z,1.20
2022-10-08T11:43:43.205Z,1.20
2022-10-08T11:46:12.304Z,1.33
2022-10-08T11:48:42.813Z,1.20
2022-10-08T11:50:51.919Z,1.67
2022-10-08T11:53:15.464Z,1.30
2022-10-08T11:55:26.547Z,1.27
2022-10-08T11:58:06.646Z,1.30
2022-10-08T12:00:08.866Z,1.27
2022-10-08T12:02:24.707Z,1.77
2022-10-08T12:04:36.159Z,1.20
2022-10-08T12:06:46.056Z,1.30
2022-10-08T12:08:56.851Z,1.50
2022-10-08T12:11:20.985Z,1.50
2022-10-08T12:13:43.756Z,1.60
2022-10-08T12:15:56.867Z,1.20
2022-10-08T12:18:27.046Z,1.50
2022-10-08T12:20:38.132Z,1.17
2022-10-08T12:23:01.127Z,1.20
2022-10-08T12:25:31.159Z,1.30
2022-10-08T12:27:41.460Z,1.37
2022-10-08T12:29:58.264Z,1.43
2022-10-08T12:32:07.125Z,1.40
2022-10-08T12:34:18.850Z,1.37
2022-10-08T12:36:31.440Z,1.63
2022-10-08T12:38:43.972Z,1.20
2022-10-08T12:40:58.714Z,1.20
2022-10-08T12:43:15.530Z,1.30
2022-10-08T12:45:28.824Z,1.20
2022-10-08T12:47:42.306Z,1.40
2022-10-08T12:49:54.380Z,1.17
2022-10-08T12:52:05.677Z,1.30
2022-10-08T12:54:21.252Z,1.00
2022-10-08T12:56:31.279Z,1.10
2022-10-08T12:58:42.863Z,1.30
2022-10-08T13:00:55.313Z,1.47
2022-10-08T13:03:05.248Z,1.40
2022-10-08T13:05:26.176Z,1.30
2022-10-08T13:07:35.819Z,1.40
2022-10-08T13:09:46.923Z,1.27
2022-10-08T13:12:00.659Z,1.10
2022-10-08T13:14:24.576Z,1.40
2022-10-08T13:16:47.944Z,1.53
2022-10-08T13:18:58.744Z,1.27
2022-10-08T13:21:09.185Z,1.37
2022-10-08T13:23:27.645Z,1.73
2022-10-08T13:25:37.777Z,1.27
2022-10-08T13:27:46.528Z,1.30
2022-10-08T13:29:56.035Z,1.23
2022-10-08T13:32:08.972Z,1.50
2022-10-08T13:34:18.481Z,1.90
2022-10-08T13:36:27.506Z,1.57
2022-10-08T13:38:37.830Z,1.43
2022-10-08T13:40:51.078Z,1.60
2022-10-08T13:43:00.353Z,1.30
2022-10-08T13:45:15.502Z,1.30
2022-10-08T13:47:25.520Z,1.20
2022-10-08T13:49:35.143Z,1.50
2022-10-08T13:51:43.880Z,1.23
2022-10-08T13:53:56.957Z,1.10
2022-10-08T13:56:05.784Z,1.20
2022-10-08T13:58:15.333Z,1.30
2022-10-08T14:00:24.591Z,1.40
2022-10-08T14:02:34.549Z,1.20
2022-10-08T14:04:43.488Z,1.50
2022-10-08T14:06:53.668Z,1.50
2022-10-08T14:09:02.544Z,1.60
2022-10-08T14:11:12.440Z,1.37
2022-10-08T14:13:21.607Z,1.17
2022-10-08T14:15:30.757Z,1.40
2022-10-08T14:17:41.578Z,1.87
2022-10-08T14:19:50.799Z,1.20
2022-10-08T14:21:59.467Z,2.10
2022-10-08T14:24:08.568Z,1.70
2022-10-08T14:26:17.295Z,1.30
2022-10-08T14:28:26.194Z,1.20
2022-10-08T14:30:35.299Z,1.40
2022-10-08T14:32:46.601Z,1.10
2022-10-08T14:34:55.617Z,1.57
2022-10-08T14:37:06.052Z,1.40
2022-10-08T14:39:15.120Z,1.10
2022-10-08T14:41:24.076Z,1.30
2022-10-08T14:43:33.060Z,1.40
2022-10-08T14:45:42.237Z,1.20
2022-10-08T14:47:53.024Z,1.10
2022-10-08T14:50:01.916Z,1.53
2022-10-08T14:52:10.585Z,1.37
2022-10-08T14:54:19.451Z,1.40
2022-10-08T14:56:28.783Z,1.27
2022-10-08T14:58:37.495Z,1.43
2022-10-08T15:00:46.106Z,1.60
2022-10-08T15:02:56.828Z,1.17
2022-10-08T15:05:06.008Z,1.20
2022-10-08T15:07:14.581Z,1.10
2022-10-08T15:09:23.045Z,1.40
2022-10-08T15:11:31.944Z,1.43
2022-10-08T15:13:40.657Z,1.77
2022-10-08T15:15:49.212Z,1.37
2022-10-08T15:17:59.753Z,1.60
2022-10-08T15:20:09.060Z,1.37
2022-10-08T15:22:18.114Z,1.50
2022-10-08T15:24:27.565Z,1.27
2022-10-08T15:26:36.560Z,1.37
2022-10-08T15:28:46.228Z,1.47
2022-10-08T15:31:02.747Z,1.40
2022-10-08T15:33:13.525Z,1.40
2022-10-08T15:35:22.733Z,1.00
2022-10-08T15:37:31.481Z,1.30
2022-10-08T15:39:40.205Z,1.10
2022-10-08T15:41:50.167Z,1.10
2022-10-08T15:44:08.693Z,1.40
2022-10-08T15:46:18.738Z,1.20
2022-10-08T15:48:29.075Z,1.00
2022-10-08T15:50:39.379Z,1.17
2022-10-08T15:52:48.677Z,1.33
2022-10-08T15:54:57.438Z,1.53
2022-10-08T15:57:06.596Z,1.70
2022-10-08T15:59:16.018Z,1.10
2022-10-08T16:01:25.769Z,1.10
2022-10-08T16:03:38.762Z,1.40
2022-10-08T16:05:47.872Z,1.13
2022-10-08T16:07:56.441Z,1.10
2022-10-08T16:10:05.227Z,1.27
2022-10-08T16:12:13.887Z,1.20
2022-10-08T16:14:23.831Z,1.20
2022-10-08T16:16:32.653Z,1.27
2022-10-08T16:18:43.011Z,1.30
2022-10-08T16:20:52.765Z,1.10
2022-10-08T16:23:01.819Z,1.10
2022-10-08T16:25:10.820Z,1.07
2022-10-08T16:27:19.620Z,1.50
2022-10-08T16:29:28.536Z,1.47
2022-10-08T16:31:38.270Z,0.80
2022-10-08T16:33:49.236Z,1.60
2022-10-08T16:35:58.289Z,1.33
2022-10-08T16:38:07.290Z,1.30
2022-10-08T16:40:16.180Z,1.33
2022-10-08T16:42:25.790Z,1.33
2022-10-08T16:44:34.682Z,1.57
2022-10-08T16:46:44.531Z,1.37
2022-10-08T16:48:55.246Z,1.53
2022-10-08T16:51:04.870Z,1.43
2022-10-08T16:53:13.608Z,1.70
2022-10-08T16:55:22.197Z,1.63
2022-10-08T16:57:33.191Z,1.60
2022-10-08T16:59:41.912Z,1.83
2022-10-08T17:01:52.089Z,1.60
2022-10-08T17:04:02.969Z,1.97
2022-10-08T17:06:12.014Z,1.40
2022-10-08T17:08:20.836Z,1.33
2022-10-08T17:10:31.932Z,3.43
2022-10-08T17:12:42.920Z,3.40
2022-10-08T17:14:51.894Z,2.20
2022-10-08T17:17:00.847Z,1.50
2022-10-08T17:19:11.604Z,1.60
2022-10-08T17:21:20.821Z,1.93
2022-10-08T17:23:34.203Z,1.83
2022-10-08T17:25:42.926Z,1.60
2022-10-08T17:27:51.810Z,1.40
2022-10-08T17:30:02.122Z,2.20
2022-10-08T17:32:11.681Z,3.73
2022-10-08T17:34:22.510Z,1.37
2022-10-08T17:36:32.616Z,1.30
2022-10-08T17:38:42.565Z,2.10
2022-10-08T17:40:51.128Z,1.40
2022-10-08T17:43:00.234Z,1.40
2022-10-08T17:45:09.352Z,1.30
2022-10-08T17:47:20.204Z,1.50
2022-10-08T17:49:30.293Z,1.70
2022-10-08T17:51:39.036Z,1.53
2022-10-08T17:53:47.937Z,1.67
2022-10-08T17:56:00.968Z,1.37
2022-10-08T17:58:09.562Z,1.60
2022-10-08T18:00:18.790Z,1.13
2022-10-08T18:02:30.490Z,1.20
2022-10-08T18:04:41.055Z,1.10
2022-10-08T18:06:49.973Z,1.43
2022-10-08T18:08:59.312Z,1.63
2022-10-08T18:11:09.559Z,2.10
2022-10-08T18:13:18.161Z,1.67
2022-10-08T18:15:26.742Z,1.40
2022-10-08T18:17:35.722Z,1.70
2022-10-08T18:19:46.010Z,1.67
2022-10-08T18:21:54.579Z,1.27
2022-10-08T18:24:03.520Z,1.83
2022-10-08T18:26:13.233Z,1.77
2022-10-08T18:28:22.566Z,1.30
2022-10-08T18:30:31.680Z,1.57
2022-10-08T18:32:40.439Z,1.20
2022-10-08T18:34:51.859Z,1.30
2022-10-08T18:37:00.446Z,1.63
2022-10-08T18:39:10.250Z,1.60
2022-10-08T18:41:20.489Z,2.30
2022-10-08T18:43:31.888Z,2.20
2022-10-08T18:45:40.911Z,1.87
2022-10-08T18:47:49.973Z,1.47
2022-10-08T18:50:00.056Z,1.80
2022-10-08T18:52:09.610Z,2.00
2022-10-08T18:54:18.305Z,1.77
2022-10-08T18:56:29.588Z,1.90
2022-10-08T18:58:38.613Z,2.03
2022-10-08T19:00:47.378Z,3.20
2022-10-08T19:02:58.709Z,2.47
2022-10-08T19:05:09.501Z,2.53
2022-10-08T19:07:18.196Z,2.20
2022-10-08T19:09:27.608Z,1.40
2022-10-08T19:11:45.023Z,2.00
2022-10-08T19:13:55.061Z,2.60
2022-10-08T19:16:04.773Z,5.30
2022-10-08T19:18:13.782Z,3.30
2022-10-08T19:20:24.421Z,2.00
2022-10-08T19:22:33.728Z,1.80
2022-10-08T19:24:42.484Z,1.97
2022-10-08T19:26:51.815Z,1.50
2022-10-08T19:29:00.855Z,2.00
2022-10-08T19:31:16.363Z,1.50
2022-10-08T19:33:25.893Z,1.70
2022-10-08T19:35:36.966Z,2.30
2022-10-08T19:37:46.375Z,1.93
2022-10-08T19:39:55.789Z,1.80
2022-10-08T19:42:04.886Z,1.70
2022-10-08T19:44:14.495Z,1.70
2022-10-08T19:46:23.810Z,2.00
2022-10-08T19:48:33.347Z,1.60
2022-10-08T19:50:43.612Z,1.30
2022-10-08T19:52:53.145Z,1.60
2022-10-08T19:55:02.178Z,2.30
2022-10-08T19:57:11.556Z,2.63
2022-10-08T19:59:20.585Z,2.03
2022-10-08T20:01:30.837Z,2.13
2022-10-08T20:03:39.786Z,2.00
2022-10-08T20:05:50.304Z,1.73
2022-10-08T20:07:59.148Z,1.73
2022-10-08T20:10:08.453Z,1.20
2022-10-08T20:12:17.290Z,1.77
2022-10-08T20:14:26.454Z,1.50
2022-10-08T20:16:36.168Z,1.30
2022-10-08T20:18:49.680Z,1.27
2022-10-08T20:21:07.701Z,1.47
2022-10-08T20:23:16.627Z,1.33
2022-10-08T20:25:26.243Z,1.40
2022-10-08T20:27:34.976Z,1.10
2022-10-08T20:29:44.740Z,1.50
2022-10-08T20:31:54.969Z,1.73
2022-10-08T20:34:04.529Z,1.27
2022-10-08T20:36:15.430Z,1.23
2022-10-08T20:38:24.069Z,1.30
2022-10-08T20:40:32.792Z,1.20
2022-10-08T20:42:42.074Z,2.10
2022-10-08T20:44:50.616Z,1.10
2022-10-08T20:47:00.687Z,1.30
2022-10-08T20:49:09.554Z,1.50
2022-10-08T20:51:20.937Z,1.10
2022-10-08T20:53:29.861Z,1.80
2022-10-08T20:55:39.554Z,1.27
2022-10-08T20:57:48.227Z,0.90
2022-10-08T20:59:57.901Z,1.37
2022-10-08T21:02:06.824Z,1.07
2022-10-08T21:04:15.977Z,1.27
2022-10-08T21:06:27.212Z,1.20
2022-10-08T21:08:38.135Z,1.13
2022-10-08T21:10:46.896Z,1.60
2022-10-08T21:12:55.898Z,1.13
2022-10-08T21:15:05.112Z,1.77
2022-10-08T21:17:14.002Z,1.40
2022-10-08T21:19:23.519Z,1.37
2022-10-08T21:21:35.049Z,1.20
2022-10-08T21:23:44.126Z,1.70
2022-10-08T21:25:53.066Z,1.70
2022-10-08T21:28:01.913Z,1.37
2022-10-08T21:30:11.239Z,1.57
2022-10-08T21:32:21.436Z,2.07
2022-10-08T21:34:30.105Z,1.60
2022-10-08T21:36:41.660Z,1.40
2022-10-08T21:38:50.753Z,1.73
2022-10-08T21:41:00.455Z,1.07
2022-10-08T21:43:09.198Z,1.10
2022-10-08T21:45:18.241Z,1.80
2022-10-08T21:47:27.385Z,1.23
2022-10-08T21:49:36.229Z,1.23
2022-10-08T21:51:47.223Z,1.07
2022-10-08T21:53:56.854Z,1.07
2022-10-08T21:56:06.847Z,1.53
2022-10-08T21:58:15.512Z,0.90
2022-10-08T22:00:33.242Z,1.30
2022-10-08T22:02:42.599Z,0.93
2022-10-08T22:04:51.376Z,1.17
2022-10-08T22:07:02.447Z,1.27
2022-10-08T22:09:12.796Z,1.10
2022-10-08T22:11:21.567Z,1.03
2022-10-08T22:13:30.048Z,1.10
2022-10-08T22:15:38.858Z,1.17
2022-10-08T22:17:47.402Z,1.00
2022-10-08T22:19:55.885Z,1.20
2022-10-08T22:22:06.296Z,1.20
2022-10-08T22:24:15.526Z,1.57
2022-10-08T22:26:25.386Z,1.30
2022-10-08T22:28:34.368Z,1.07
2022-10-08T22:30:43.128Z,1.23
2022-10-08T22:32:51.782Z,1.00
2022-10-08T22:35:00.382Z,0.90
2022-10-08T22:37:10.710Z,1.10
2022-10-08T22:39:19.271Z,1.30
2022-10-08T22:41:28.790Z,1.20
2022-10-08T22:43:37.616Z,1.00
2022-10-08T22:45:46.377Z,1.00
2022-10-08T22:47:55.736Z,1.00
2022-10-08T22:50:04.961Z,1.10
2022-10-08T22:52:15.691Z,1.07
2022-10-08T22:54:25.021Z,1.07
2022-10-08T22:56:34.155Z,1.40
2022-10-08T22:58:43.313Z,1.00
2022-10-08T23:00:59.521Z,1.00
2022-10-08T23:03:08.386Z,1.07
2022-10-08T23:05:17.178Z,0.80
2022-10-08T23:07:27.799Z,1.00
2022-10-08T23:09:36.539Z,1.13
2022-10-08T23:11:45.759Z,0.77
2022-10-08T23:13:54.839Z,0.70
2022-10-08T23:16:04.451Z,0.90
2022-10-08T23:18:13.083Z,1.03
2022-10-08T23:20:21.589Z,0.80
2022-10-08T23:22:33.610Z,0.77
2022-10-08T23:24:42.667Z,0.90
2022-10-08T23:26:51.589Z,1.00
2022-10-08T23:29:02.660Z,0.93
2022-10-08T23:31:12.452Z,0.90
2022-10-08T23:33:21.982Z,0.90
2022-10-08T23:35:30.629Z,0.90
2022-10-08T23:37:41.144Z,0.80
2022-10-08T23:39:53.221Z,0.63
2022-10-08T23:42:04.195Z,0.80
2022-10-08T23:44:13.821Z,0.70
2022-10-08T23:46:24.232Z,0.80
2022-10-08T23:48:34.049Z,0.90
2022-10-08T23:50:42.599Z,1.00
2022-10-08T23:52:53.272Z,0.70
2022-10-08T23:55:01.795Z,0.77
2022-10-08T23:57:10.397Z,0.67
2022-10-08T23:59:19.088Z,0.63
